sensor_id;sensor_type;location;lat;lon;timestamp;P1;durP1;ratioP1;P2;durP2;ratioP2
73150;SDS011;61354;50.758;6.106;2023-09-19T00:02:02;5.18;;;1.40;;
73150;SDS011;61354;50.758;6.106;2023-09-19T00:04:33;4.88;;;1.40;;
73150;SDS011;61354;50.758;6.106;2023-09-19T00:06:58;6.25;;;1.50;;
73150;SDS011;61354;50.758;6.106;2023-09-19T00:09:24;3.90;;;1.20;;
73150;SDS011;61354;50.758;6.106;2023-09-19T00:11:53;4.60;;;1.52;;
73150;SDS011;61354;50.758;6.106;2023-09-19T00:14:19;5.38;;;1.50;;
73150;SDS011;61354;50.758;6.106;2023-09-19T00:16:45;3.75;;;1.10;;
73150;SDS011;61354;50.758;6.106;2023-09-19T00:19:11;4.57;;;1.40;;
73150;SDS011;61354;50.758;6.106;2023-09-19T00:21:37;5.60;;;1.23;;
73150;SDS011;61354;50.758;6.106;2023-09-19T00:24:04;6.22;;;1.30;;
73150;SDS011;61354;50.758;6.106;2023-09-19T00:26:31;3.95;;;1.35;;
73150;SDS011;61354;50.758;6.106;2023-09-19T00:28:57;5.15;;;1.20;;
73150;SDS011;61354;50.758;6.106;2023-09-19T00:31:34;2.53;;;1.10;;
73150;SDS011;61354;50.758;6.106;2023-09-19T00:33:59;4.05;;;1.92;;
73150;SDS011;61354;50.758;6.106;2023-09-19T00:36:29;6.15;;;1.45;;
73150;SDS011;61354;50.758;6.106;2023-09-19T00:38:55;4.93;;;1.30;;
73150;SDS011;61354;50.758;6.106;2023-09-19T00:41:20;3.38;;;1.30;;
73150;SDS011;61354;50.758;6.106;2023-09-19T00:43:46;3.65;;;1.10;;
73150;SDS011;61354;50.758;6.106;2023-09-19T00:46:16;3.80;;;1.60;;
73150;SDS011;61354;50.758;6.106;2023-09-19T00:48:42;4.32;;;1.27;;
73150;SDS011;61354;50.758;6.106;2023-09-19T00:51:11;4.63;;;1.48;;
73150;SDS011;61354;50.758;6.106;2023-09-19T00:53:44;3.58;;;1.17;;
73150;SDS011;61354;50.758;6.106;2023-09-19T00:56:11;5.47;;;1.27;;
73150;SDS011;61354;50.758;6.106;2023-09-19T00:58:37;4.75;;;1.30;;
73150;SDS011;61354;50.758;6.106;2023-09-19T01:01:04;6.00;;;1.60;;
73150;SDS011;61354;50.758;6.106;2023-09-19T01:03:36;4.60;;;1.25;;
73150;SDS011;61354;50.758;6.106;2023-09-19T01:06:02;3.75;;;1.42;;
73150;SDS011;61354;50.758;6.106;2023-09-19T01:08:28;4.60;;;1.33;;
73150;SDS011;61354;50.758;6.106;2023-09-19T01:10:59;4.20;;;1.40;;
73150;SDS011;61354;50.758;6.106;2023-09-19T01:13:53;5.85;;;1.55;;
73150;SDS011;61354;50.758;6.106;2023-09-19T01:16:36;6.00;;;1.63;;
73150;SDS011;61354;50.758;6.106;2023-09-19T01:22:00;6.90;;;1.77;;
73150;SDS011;61354;50.758;6.106;2023-09-19T01:30:49;6.18;;;1.40;;
73150;SDS011;61354;50.758;6.106;2023-09-19T01:33:23;5.95;;;1.23;;
73150;SDS011;61354;50.758;6.106;2023-09-19T01:35:49;3.70;;;1.42;;
73150;SDS011;61354;50.758;6.106;2023-09-19T01:38:15;2.80;;;1.13;;
73150;SDS011;61354;50.758;6.106;2023-09-19T01:40:42;4.50;;;1.27;;
73150;SDS011;61354;50.758;6.106;2023-09-19T01:43:23;4.70;;;1.40;;
73150;SDS011;61354;50.758;6.106;2023-09-19T01:46:01;5.68;;;1.30;;
73150;SDS011;61354;50.758;6.106;2023-09-19T01:51:21;4.78;;;1.23;;
73150;SDS011;61354;50.758;6.106;2023-09-19T01:54:12;4.57;;;1.23;;
73150;SDS011;61354;50.758;6.106;2023-09-19T01:59:47;4.22;;;1.27;;
73150;SDS011;61354;50.758;6.106;2023-09-19T02:02:16;8.05;;;1.45;;
73150;SDS011;61354;50.758;6.106;2023-09-19T02:04:43;3.65;;;1.13;;
73150;SDS011;61354;50.758;6.106;2023-09-19T02:07:08;6.60;;;1.30;;
73150;SDS011;61354;50.758;6.106;2023-09-19T02:09:34;6.68;;;1.83;;
73150;SDS011;61354;50.758;6.106;2023-09-19T02:12:04;6.32;;;1.50;;
73150;SDS011;61354;50.758;6.106;2023-09-19T02:14:30;5.82;;;1.58;;
73150;SDS011;61354;50.758;6.106;2023-09-19T02:16:56;5.60;;;1.38;;
73150;SDS011;61354;50.758;6.106;2023-09-19T02:19:21;3.75;;;1.23;;
73150;SDS011;61354;50.758;6.106;2023-09-19T02:21:47;4.55;;;1.27;;
73150;SDS011;61354;50.758;6.106;2023-09-19T02:24:14;4.70;;;1.70;;
73150;SDS011;61354;50.758;6.106;2023-09-19T02:26:40;7.38;;;1.77;;
73150;SDS011;61354;50.758;6.106;2023-09-19T02:29:06;6.40;;;1.40;;
73150;SDS011;61354;50.758;6.106;2023-09-19T02:31:32;8.07;;;1.42;;
73150;SDS011;61354;50.758;6.106;2023-09-19T02:33:57;5.90;;;1.52;;
73150;SDS011;61354;50.758;6.106;2023-09-19T02:36:23;4.13;;;1.33;;
73150;SDS011;61354;50.758;6.106;2023-09-19T02:38:49;4.75;;;1.38;;
73150;SDS011;61354;50.758;6.106;2023-09-19T02:41:15;6.45;;;1.45;;
73150;SDS011;61354;50.758;6.106;2023-09-19T02:43:40;5.82;;;1.60;;
73150;SDS011;61354;50.758;6.106;2023-09-19T02:46:08;6.57;;;1.33;;
73150;SDS011;61354;50.758;6.106;2023-09-19T02:48:36;4.03;;;1.20;;
73150;SDS011;61354;50.758;6.106;2023-09-19T02:51:02;6.13;;;1.50;;
73150;SDS011;61354;50.758;6.106;2023-09-19T02:53:30;5.55;;;1.60;;
73150;SDS011;61354;50.758;6.106;2023-09-19T02:55:57;4.45;;;1.10;;
73150;SDS011;61354;50.758;6.106;2023-09-19T02:58:24;4.43;;;1.65;;
73150;SDS011;61354;50.758;6.106;2023-09-19T03:00:50;5.10;;;1.60;;
73150;SDS011;61354;50.758;6.106;2023-09-19T03:03:16;3.50;;;0.90;;
73150;SDS011;61354;50.758;6.106;2023-09-19T03:05:42;4.93;;;1.52;;
73150;SDS011;61354;50.758;6.106;2023-09-19T03:08:13;5.20;;;1.20;;
73150;SDS011;61354;50.758;6.106;2023-09-19T03:10:42;4.22;;;1.35;;
73150;SDS011;61354;50.758;6.106;2023-09-19T03:13:08;5.25;;;1.48;;
73150;SDS011;61354;50.758;6.106;2023-09-19T03:15:35;4.43;;;1.40;;
73150;SDS011;61354;50.758;6.106;2023-09-19T03:18:04;4.25;;;1.23;;
73150;SDS011;61354;50.758;6.106;2023-09-19T03:20:30;4.32;;;1.30;;
73150;SDS011;61354;50.758;6.106;2023-09-19T03:22:55;6.32;;;1.25;;
73150;SDS011;61354;50.758;6.106;2023-09-19T03:25:22;5.65;;;1.58;;
73150;SDS011;61354;50.758;6.106;2023-09-19T03:27:48;5.80;;;1.63;;
73150;SDS011;61354;50.758;6.106;2023-09-19T03:30:14;5.07;;;1.25;;
73150;SDS011;61354;50.758;6.106;2023-09-19T03:32:46;8.98;;;1.48;;
73150;SDS011;61354;50.758;6.106;2023-09-19T03:35:15;4.90;;;1.20;;
73150;SDS011;61354;50.758;6.106;2023-09-19T03:37:42;6.20;;;1.35;;
73150;SDS011;61354;50.758;6.106;2023-09-19T03:40:08;4.75;;;1.30;;
73150;SDS011;61354;50.758;6.106;2023-09-19T03:42:37;5.53;;;1.58;;
73150;SDS011;61354;50.758;6.106;2023-09-19T03:45:07;5.70;;;1.52;;
73150;SDS011;61354;50.758;6.106;2023-09-19T03:47:37;5.00;;;1.27;;
73150;SDS011;61354;50.758;6.106;2023-09-19T03:50:04;5.53;;;1.50;;
73150;SDS011;61354;50.758;6.106;2023-09-19T03:52:30;7.78;;;1.83;;
73150;SDS011;61354;50.758;6.106;2023-09-19T03:54:56;5.40;;;1.33;;
73150;SDS011;61354;50.758;6.106;2023-09-19T03:57:22;6.55;;;1.60;;
73150;SDS011;61354;50.758;6.106;2023-09-19T03:59:47;8.48;;;1.75;;
73150;SDS011;61354;50.758;6.106;2023-09-19T04:02:13;4.57;;;2.10;;
73150;SDS011;61354;50.758;6.106;2023-09-19T04:04:50;7.72;;;1.50;;
73150;SDS011;61354;50.758;6.106;2023-09-19T04:07:17;4.25;;;1.15;;
73150;SDS011;61354;50.758;6.106;2023-09-19T04:09:44;5.15;;;1.38;;
73150;SDS011;61354;50.758;6.106;2023-09-19T04:12:11;4.60;;;1.42;;
73150;SDS011;61354;50.758;6.106;2023-09-19T04:14:37;5.40;;;1.50;;
73150;SDS011;61354;50.758;6.106;2023-09-19T04:17:03;4.72;;;1.48;;
73150;SDS011;61354;50.758;6.106;2023-09-19T04:19:30;5.20;;;1.58;;
73150;SDS011;61354;50.758;6.106;2023-09-19T04:21:56;10.10;;;1.85;;
73150;SDS011;61354;50.758;6.106;2023-09-19T04:24:21;3.90;;;1.25;;
73150;SDS011;61354;50.758;6.106;2023-09-19T04:26:47;8.82;;;1.83;;
73150;SDS011;61354;50.758;6.106;2023-09-19T04:29:13;4.10;;;1.33;;
73150;SDS011;61354;50.758;6.106;2023-09-19T04:31:39;3.90;;;1.35;;
73150;SDS011;61354;50.758;6.106;2023-09-19T04:34:05;5.68;;;1.70;;
73150;SDS011;61354;50.758;6.106;2023-09-19T04:36:31;7.38;;;1.90;;
73150;SDS011;61354;50.758;6.106;2023-09-19T04:38:57;7.13;;;2.35;;
73150;SDS011;61354;50.758;6.106;2023-09-19T04:41:22;4.25;;;1.30;;
73150;SDS011;61354;50.758;6.106;2023-09-19T04:43:49;3.10;;;1.10;;
73150;SDS011;61354;50.758;6.106;2023-09-19T04:46:16;5.63;;;1.45;;
73150;SDS011;61354;50.758;6.106;2023-09-19T04:48:43;7.07;;;1.30;;
73150;SDS011;61354;50.758;6.106;2023-09-19T04:51:08;7.47;;;1.48;;
73150;SDS011;61354;50.758;6.106;2023-09-19T04:53:35;5.28;;;1.33;;
73150;SDS011;61354;50.758;6.106;2023-09-19T04:56:01;5.32;;;1.25;;
73150;SDS011;61354;50.758;6.106;2023-09-19T04:58:37;4.95;;;1.27;;
73150;SDS011;61354;50.758;6.106;2023-09-19T05:01:03;4.38;;;1.60;;
73150;SDS011;61354;50.758;6.106;2023-09-19T05:03:29;6.55;;;1.58;;
73150;SDS011;61354;50.758;6.106;2023-09-19T05:05:55;8.00;;;1.83;;
73150;SDS011;61354;50.758;6.106;2023-09-19T05:08:20;6.57;;;1.40;;
73150;SDS011;61354;50.758;6.106;2023-09-19T05:10:47;5.85;;;1.40;;
73150;SDS011;61354;50.758;6.106;2023-09-19T05:13:14;5.97;;;1.38;;
73150;SDS011;61354;50.758;6.106;2023-09-19T05:15:40;6.55;;;1.77;;
73150;SDS011;61354;50.758;6.106;2023-09-19T05:18:06;5.13;;;1.45;;
73150;SDS011;61354;50.758;6.106;2023-09-19T05:20:37;3.35;;;1.25;;
73150;SDS011;61354;50.758;6.106;2023-09-19T05:23:04;6.90;;;1.50;;
73150;SDS011;61354;50.758;6.106;2023-09-19T05:25:34;4.30;;;1.20;;
73150;SDS011;61354;50.758;6.106;2023-09-19T05:28:07;3.63;;;1.45;;
73150;SDS011;61354;50.758;6.106;2023-09-19T05:30:37;6.07;;;1.77;;
73150;SDS011;61354;50.758;6.106;2023-09-19T05:33:07;8.48;;;1.60;;
73150;SDS011;61354;50.758;6.106;2023-09-19T05:35:33;5.82;;;1.67;;
73150;SDS011;61354;50.758;6.106;2023-09-19T05:37:59;8.02;;;1.83;;
73150;SDS011;61354;50.758;6.106;2023-09-19T05:40:25;5.15;;;1.35;;
73150;SDS011;61354;50.758;6.106;2023-09-19T05:42:51;5.53;;;2.60;;
73150;SDS011;61354;50.758;6.106;2023-09-19T05:45:17;5.57;;;1.52;;
73150;SDS011;61354;50.758;6.106;2023-09-19T05:47:48;8.82;;;1.83;;
73150;SDS011;61354;50.758;6.106;2023-09-19T05:50:15;6.93;;;1.70;;
73150;SDS011;61354;50.758;6.106;2023-09-19T05:52:41;5.57;;;1.83;;
73150;SDS011;61354;50.758;6.106;2023-09-19T05:55:09;7.03;;;1.65;;
73150;SDS011;61354;50.758;6.106;2023-09-19T05:57:38;5.00;;;1.40;;
73150;SDS011;61354;50.758;6.106;2023-09-19T06:00:05;4.07;;;2.05;;
73150;SDS011;61354;50.758;6.106;2023-09-19T06:02:36;7.80;;;1.90;;
73150;SDS011;61354;50.758;6.106;2023-09-19T06:05:06;5.20;;;1.50;;
73150;SDS011;61354;50.758;6.106;2023-09-19T06:07:36;5.35;;;1.42;;
73150;SDS011;61354;50.758;6.106;2023-09-19T06:57:37;9.15;;;1.85;;
73150;SDS011;61354;50.758;6.106;2023-09-19T07:03:37;10.23;;;1.92;;
73150;SDS011;61354;50.758;6.106;2023-09-19T07:09:03;2.72;;;1.35;;
73150;SDS011;61354;50.758;6.106;2023-09-19T07:11:29;6.00;;;1.30;;
73150;SDS011;61354;50.758;6.106;2023-09-19T07:13:56;5.38;;;1.50;;
73150;SDS011;61354;50.758;6.106;2023-09-19T07:16:23;5.55;;;1.60;;
73150;SDS011;61354;50.758;6.106;2023-09-19T07:18:55;7.10;;;1.38;;
73150;SDS011;61354;50.758;6.106;2023-09-19T07:21:22;5.32;;;1.60;;
73150;SDS011;61354;50.758;6.106;2023-09-19T07:23:48;3.67;;;1.50;;
73150;SDS011;61354;50.758;6.106;2023-09-19T07:26:15;7.32;;;1.80;;
73150;SDS011;61354;50.758;6.106;2023-09-19T07:28:41;4.35;;;1.60;;
73150;SDS011;61354;50.758;6.106;2023-09-19T07:31:07;6.22;;;1.70;;
73150;SDS011;61354;50.758;6.106;2023-09-19T07:33:36;6.32;;;1.30;;
73150;SDS011;61354;50.758;6.106;2023-09-19T07:36:02;8.52;;;2.00;;
73150;SDS011;61354;50.758;6.106;2023-09-19T07:38:27;5.78;;;1.48;;
73150;SDS011;61354;50.758;6.106;2023-09-19T07:40:59;6.53;;;1.50;;
73150;SDS011;61354;50.758;6.106;2023-09-19T07:43:25;4.70;;;1.50;;
73150;SDS011;61354;50.758;6.106;2023-09-19T07:45:52;6.40;;;2.10;;
73150;SDS011;61354;50.758;6.106;2023-09-19T07:48:17;5.95;;;1.52;;
73150;SDS011;61354;50.758;6.106;2023-09-19T07:50:43;10.65;;;1.73;;
73150;SDS011;61354;50.758;6.106;2023-09-19T07:53:09;4.63;;;1.98;;
73150;SDS011;61354;50.758;6.106;2023-09-19T07:55:34;8.15;;;1.52;;
73150;SDS011;61354;50.758;6.106;2023-09-19T07:58:00;6.50;;;1.50;;
73150;SDS011;61354;50.758;6.106;2023-09-19T08:00:26;6.60;;;1.77;;
73150;SDS011;61354;50.758;6.106;2023-09-19T08:02:51;7.10;;;1.60;;
73150;SDS011;61354;50.758;6.106;2023-09-19T08:05:20;4.55;;;1.40;;
73150;SDS011;61354;50.758;6.106;2023-09-19T08:07:46;6.65;;;1.58;;
73150;SDS011;61354;50.758;6.106;2023-09-19T08:10:15;6.03;;;1.63;;
73150;SDS011;61354;50.758;6.106;2023-09-19T08:12:44;7.68;;;1.55;;
73150;SDS011;61354;50.758;6.106;2023-09-19T08:17:40;3.92;;;1.27;;
73150;SDS011;61354;50.758;6.106;2023-09-19T08:20:06;5.32;;;1.30;;
73150;SDS011;61354;50.758;6.106;2023-09-19T08:22:32;5.93;;;1.45;;
73150;SDS011;61354;50.758;6.106;2023-09-19T08:24:58;5.10;;;1.73;;
73150;SDS011;61354;50.758;6.106;2023-09-19T08:27:24;5.68;;;1.40;;
73150;SDS011;61354;50.758;6.106;2023-09-19T08:29:53;4.43;;;1.95;;
73150;SDS011;61354;50.758;6.106;2023-09-19T08:32:18;8.90;;;1.70;;
73150;SDS011;61354;50.758;6.106;2023-09-19T08:34:49;6.75;;;1.33;;
73150;SDS011;61354;50.758;6.106;2023-09-19T08:37:15;2.65;;;1.25;;
73150;SDS011;61354;50.758;6.106;2023-09-19T08:39:44;4.47;;;1.27;;
73150;SDS011;61354;50.758;6.106;2023-09-19T08:42:10;4.65;;;1.70;;
73150;SDS011;61354;50.758;6.106;2023-09-19T08:44:37;7.35;;;1.52;;
73150;SDS011;61354;50.758;6.106;2023-09-19T08:47:09;5.88;;;1.40;;
73150;SDS011;61354;50.758;6.106;2023-09-19T08:52:41;6.90;;;2.13;;
73150;SDS011;61354;50.758;6.106;2023-09-19T08:55:07;4.32;;;1.67;;
73150;SDS011;61354;50.758;6.106;2023-09-19T08:57:37;4.30;;;1.40;;
73150;SDS011;61354;50.758;6.106;2023-09-19T09:00:07;3.30;;;1.17;;
73150;SDS011;61354;50.758;6.106;2023-09-19T09:02:37;7.00;;;1.30;;
73150;SDS011;61354;50.758;6.106;2023-09-19T09:05:07;3.85;;;1.50;;
73150;SDS011;61354;50.758;6.106;2023-09-19T09:07:35;4.95;;;1.27;;
73150;SDS011;61354;50.758;6.106;2023-09-19T09:10:02;4.35;;;1.65;;
73150;SDS011;61354;50.758;6.106;2023-09-19T09:12:29;5.00;;;1.40;;
73150;SDS011;61354;50.758;6.106;2023-09-19T09:14:55;5.15;;;1.35;;
73150;SDS011;61354;50.758;6.106;2023-09-19T09:17:23;4.85;;;1.70;;
73150;SDS011;61354;50.758;6.106;2023-09-19T09:19:52;3.70;;;1.33;;
73150;SDS011;61354;50.758;6.106;2023-09-19T09:22:18;7.07;;;1.52;;
73150;SDS011;61354;50.758;6.106;2023-09-19T09:27:29;4.15;;;1.45;;
73150;SDS011;61354;50.758;6.106;2023-09-19T09:29:55;3.08;;;1.10;;
73150;SDS011;61354;50.758;6.106;2023-09-19T09:32:22;6.93;;;1.48;;
73150;SDS011;61354;50.758;6.106;2023-09-19T09:34:55;4.95;;;1.20;;
73150;SDS011;61354;50.758;6.106;2023-09-19T09:37:23;5.95;;;1.50;;
73150;SDS011;61354;50.758;6.106;2023-09-19T09:39:56;4.22;;;1.50;;
73150;SDS011;61354;50.758;6.106;2023-09-19T09:42:33;5.03;;;1.40;;
73150;SDS011;61354;50.758;6.106;2023-09-19T09:45:13;6.63;;;1.80;;
73150;SDS011;61354;50.758;6.106;2023-09-19T09:47:42;4.53;;;1.45;;
73150;SDS011;61354;50.758;6.106;2023-09-19T09:50:30;3.90;;;1.27;;
73150;SDS011;61354;50.758;6.106;2023-09-19T09:53:21;5.45;;;1.90;;
73150;SDS011;61354;50.758;6.106;2023-09-19T09:58:31;5.60;;;1.70;;
73150;SDS011;61354;50.758;6.106;2023-09-19T10:01:01;5.25;;;1.60;;
73150;SDS011;61354;50.758;6.106;2023-09-19T10:06:06;5.22;;;1.40;;
73150;SDS011;61354;50.758;6.106;2023-09-19T10:11:45;6.20;;;1.60;;
73150;SDS011;61354;50.758;6.106;2023-09-19T10:14:19;5.85;;;1.80;;
73150;SDS011;61354;50.758;6.106;2023-09-19T10:16:49;7.47;;;1.92;;
73150;SDS011;61354;50.758;6.106;2023-09-19T10:19:29;2.88;;;1.40;;
73150;SDS011;61354;50.758;6.106;2023-09-19T10:21:59;4.38;;;1.67;;
73150;SDS011;61354;50.758;6.106;2023-09-19T10:26:53;3.85;;;1.02;;
73150;SDS011;61354;50.758;6.106;2023-09-19T10:29:20;8.73;;;2.05;;
73150;SDS011;61354;50.758;6.106;2023-09-19T10:34:50;5.38;;;1.35;;
73150;SDS011;61354;50.758;6.106;2023-09-19T10:37:20;4.72;;;1.30;;
73150;SDS011;61354;50.758;6.106;2023-09-19T10:39:51;5.45;;;1.33;;
73150;SDS011;61354;50.758;6.106;2023-09-19T10:42:19;6.55;;;1.33;;
73150;SDS011;61354;50.758;6.106;2023-09-19T10:44:47;5.07;;;1.40;;
73150;SDS011;61354;50.758;6.106;2023-09-19T10:47:22;3.22;;;1.00;;
73150;SDS011;61354;50.758;6.106;2023-09-19T10:49:52;5.07;;;1.42;;
73150;SDS011;61354;50.758;6.106;2023-09-19T10:52:38;5.10;;;1.08;;
73150;SDS011;61354;50.758;6.106;2023-09-19T11:01:46;5.65;;;1.40;;
73150;SDS011;61354;50.758;6.106;2023-09-19T11:06:59;3.83;;;1.05;;
73150;SDS011;61354;50.758;6.106;2023-09-19T11:14:51;4.15;;;1.00;;
73150;SDS011;61354;50.758;6.106;2023-09-19T11:30:47;4.65;;;1.08;;
73150;SDS011;61354;50.758;6.106;2023-09-19T11:33:22;6.18;;;1.50;;
73150;SDS011;61354;50.758;6.106;2023-09-19T11:43:45;4.28;;;1.13;;
73150;SDS011;61354;50.758;6.106;2023-09-19T11:46:11;7.72;;;1.30;;
73150;SDS011;61354;50.758;6.106;2023-09-19T11:48:42;4.55;;;1.02;;
73150;SDS011;61354;50.758;6.106;2023-09-19T11:51:10;4.45;;;1.33;;
73150;SDS011;61354;50.758;6.106;2023-09-19T11:53:45;5.40;;;1.20;;
73150;SDS011;61354;50.758;6.106;2023-09-19T11:56:20;3.80;;;1.20;;
73150;SDS011;61354;50.758;6.106;2023-09-19T11:58:53;3.80;;;1.30;;
73150;SDS011;61354;50.758;6.106;2023-09-19T12:01:24;4.78;;;1.20;;
73150;SDS011;61354;50.758;6.106;2023-09-19T12:03:58;4.03;;;0.93;;
73150;SDS011;61354;50.758;6.106;2023-09-19T12:06:27;3.20;;;1.27;;
73150;SDS011;61354;50.758;6.106;2023-09-19T12:09:04;3.58;;;0.95;;
73150;SDS011;61354;50.758;6.106;2023-09-19T12:11:40;3.90;;;1.00;;
73150;SDS011;61354;50.758;6.106;2023-09-19T12:14:09;2.30;;;1.00;;
73150;SDS011;61354;50.758;6.106;2023-09-19T12:16:35;5.55;;;1.38;;
73150;SDS011;61354;50.758;6.106;2023-09-19T12:19:17;4.72;;;1.17;;
73150;SDS011;61354;50.758;6.106;2023-09-19T12:21:53;2.78;;;1.10;;
73150;SDS011;61354;50.758;6.106;2023-09-19T12:24:19;3.35;;;1.10;;
73150;SDS011;61354;50.758;6.106;2023-09-19T12:26:45;4.72;;;1.33;;
73150;SDS011;61354;50.758;6.106;2023-09-19T12:29:20;5.32;;;1.30;;
73150;SDS011;61354;50.758;6.106;2023-09-19T12:31:56;3.15;;;1.10;;
73150;SDS011;61354;50.758;6.106;2023-09-19T12:34:23;3.50;;;1.08;;
73150;SDS011;61354;50.758;6.106;2023-09-19T12:37:11;5.28;;;1.20;;
73150;SDS011;61354;50.758;6.106;2023-09-19T12:39:46;3.30;;;0.85;;
73150;SDS011;61354;50.758;6.106;2023-09-19T12:42:17;5.38;;;1.20;;
73150;SDS011;61354;50.758;6.106;2023-09-19T12:44:46;2.80;;;1.20;;
73150;SDS011;61354;50.758;6.106;2023-09-19T12:47:17;1.98;;;0.80;;
73150;SDS011;61354;50.758;6.106;2023-09-19T12:52:45;2.85;;;1.10;;
73150;SDS011;61354;50.758;6.106;2023-09-19T12:55:21;3.78;;;0.93;;
73150;SDS011;61354;50.758;6.106;2023-09-19T12:57:55;3.88;;;1.23;;
73150;SDS011;61354;50.758;6.106;2023-09-19T13:03:12;4.05;;;1.00;;
73150;SDS011;61354;50.758;6.106;2023-09-19T13:08:21;5.82;;;1.45;;
73150;SDS011;61354;50.758;6.106;2023-09-19T13:11:07;2.60;;;0.90;;
73150;SDS011;61354;50.758;6.106;2023-09-19T13:16:19;4.00;;;1.00;;
73150;SDS011;61354;50.758;6.106;2023-09-19T13:18:51;2.05;;;0.82;;
73150;SDS011;61354;50.758;6.106;2023-09-19T13:21:33;2.53;;;0.80;;
73150;SDS011;61354;50.758;6.106;2023-09-19T13:24:17;4.05;;;0.80;;
73150;SDS011;61354;50.758;6.106;2023-09-19T13:26:53;3.03;;;0.93;;
73150;SDS011;61354;50.758;6.106;2023-09-19T13:29:19;3.20;;;0.70;;
73150;SDS011;61354;50.758;6.106;2023-09-19T13:31:48;1.65;;;0.80;;
73150;SDS011;61354;50.758;6.106;2023-09-19T13:34:20;2.60;;;0.70;;
73150;SDS011;61354;50.758;6.106;2023-09-19T13:36:46;1.67;;;0.80;;
73150;SDS011;61354;50.758;6.106;2023-09-19T13:39:18;2.35;;;0.90;;
73150;SDS011;61354;50.758;6.106;2023-09-19T13:41:44;2.65;;;0.90;;
73150;SDS011;61354;50.758;6.106;2023-09-19T13:46:37;2.33;;;0.70;;
73150;SDS011;61354;50.758;6.106;2023-09-19T13:49:02;1.77;;;0.80;;
73150;SDS011;61354;50.758;6.106;2023-09-19T13:51:31;2.70;;;0.82;;
73150;SDS011;61354;50.758;6.106;2023-09-19T13:53:57;4.28;;;0.70;;
73150;SDS011;61354;50.758;6.106;2023-09-19T13:56:25;3.10;;;0.90;;
73150;SDS011;61354;50.758;6.106;2023-09-19T13:58:53;2.28;;;0.82;;
73150;SDS011;61354;50.758;6.106;2023-09-19T14:01:19;2.90;;;1.00;;
73150;SDS011;61354;50.758;6.106;2023-09-19T14:03:45;2.72;;;0.68;;
73150;SDS011;61354;50.758;6.106;2023-09-19T14:06:11;2.63;;;1.10;;
73150;SDS011;61354;50.758;6.106;2023-09-19T14:08:40;3.13;;;0.90;;
73150;SDS011;61354;50.758;6.106;2023-09-19T14:11:06;3.42;;;0.80;;
73150;SDS011;61354;50.758;6.106;2023-09-19T14:13:35;2.17;;;0.90;;
73150;SDS011;61354;50.758;6.106;2023-09-19T14:16:07;1.77;;;0.70;;
73150;SDS011;61354;50.758;6.106;2023-09-19T14:18:34;1.38;;;0.73;;
73150;SDS011;61354;50.758;6.106;2023-09-19T14:21:06;2.72;;;0.55;;
73150;SDS011;61354;50.758;6.106;2023-09-19T14:26:02;3.42;;;0.80;;
73150;SDS011;61354;50.758;6.106;2023-09-19T14:28:28;2.50;;;0.88;;
73150;SDS011;61354;50.758;6.106;2023-09-19T14:30:55;3.50;;;0.95;;
73150;SDS011;61354;50.758;6.106;2023-09-19T14:33:21;2.85;;;0.85;;
73150;SDS011;61354;50.758;6.106;2023-09-19T14:35:46;1.73;;;1.00;;
73150;SDS011;61354;50.758;6.106;2023-09-19T14:38:12;2.40;;;0.80;;
73150;SDS011;61354;50.758;6.106;2023-09-19T14:40:37;2.05;;;0.70;;
73150;SDS011;61354;50.758;6.106;2023-09-19T14:43:04;3.50;;;0.82;;
73150;SDS011;61354;50.758;6.106;2023-09-19T14:45:30;3.58;;;1.08;;
73150;SDS011;61354;50.758;6.106;2023-09-19T14:47:56;2.40;;;0.85;;
73150;SDS011;61354;50.758;6.106;2023-09-19T14:50:22;2.40;;;0.80;;
73150;SDS011;61354;50.758;6.106;2023-09-19T14:52:48;3.25;;;1.08;;
73150;SDS011;61354;50.758;6.106;2023-09-19T14:55:17;2.25;;;0.80;;
73150;SDS011;61354;50.758;6.106;2023-09-19T14:57:48;2.25;;;0.75;;
73150;SDS011;61354;50.758;6.106;2023-09-19T15:00:16;2.88;;;0.90;;
73150;SDS011;61354;50.758;6.106;2023-09-19T15:02:43;4.00;;;0.90;;
73150;SDS011;61354;50.758;6.106;2023-09-19T15:05:10;1.85;;;0.80;;
73150;SDS011;61354;50.758;6.106;2023-09-19T15:07:36;1.92;;;0.90;;
73150;SDS011;61354;50.758;6.106;2023-09-19T15:10:03;2.45;;;0.80;;
73150;SDS011;61354;50.758;6.106;2023-09-19T15:12:32;2.80;;;0.85;;
73150;SDS011;61354;50.758;6.106;2023-09-19T15:14:58;3.03;;;0.80;;
73150;SDS011;61354;50.758;6.106;2023-09-19T15:17:24;1.50;;;0.60;;
73150;SDS011;61354;50.758;6.106;2023-09-19T15:19:50;3.00;;;0.90;;
73150;SDS011;61354;50.758;6.106;2023-09-19T15:22:16;2.45;;;0.90;;
73150;SDS011;61354;50.758;6.106;2023-09-19T15:24:42;3.40;;;0.85;;
73150;SDS011;61354;50.758;6.106;2023-09-19T15:27:08;4.60;;;0.77;;
73150;SDS011;61354;50.758;6.106;2023-09-19T15:29:33;2.95;;;0.93;;
73150;SDS011;61354;50.758;6.106;2023-09-19T15:31:59;1.90;;;0.90;;
73150;SDS011;61354;50.758;6.106;2023-09-19T15:34:27;4.63;;;0.80;;
73150;SDS011;61354;50.758;6.106;2023-09-19T15:36:55;1.75;;;0.63;;
73150;SDS011;61354;50.758;6.106;2023-09-19T15:39:20;3.50;;;1.00;;
73150;SDS011;61354;50.758;6.106;2023-09-19T15:41:47;2.20;;;0.70;;
73150;SDS011;61354;50.758;6.106;2023-09-19T15:44:17;2.47;;;0.60;;
73150;SDS011;61354;50.758;6.106;2023-09-19T15:46:44;2.08;;;0.70;;
73150;SDS011;61354;50.758;6.106;2023-09-19T15:49:10;2.53;;;0.63;;
73150;SDS011;61354;50.758;6.106;2023-09-19T15:51:37;1.55;;;0.80;;
73150;SDS011;61354;50.758;6.106;2023-09-19T15:54:10;3.25;;;0.60;;
73150;SDS011;61354;50.758;6.106;2023-09-19T15:56:41;2.55;;;0.90;;
73150;SDS011;61354;50.758;6.106;2023-09-19T15:59:07;4.93;;;0.93;;
73150;SDS011;61354;50.758;6.106;2023-09-19T16:01:37;2.25;;;0.80;;
73150;SDS011;61354;50.758;6.106;2023-09-19T16:04:05;3.05;;;1.00;;
73150;SDS011;61354;50.758;6.106;2023-09-19T16:06:34;5.00;;;0.80;;
73150;SDS011;61354;50.758;6.106;2023-09-19T16:09:00;1.88;;;0.73;;
73150;SDS011;61354;50.758;6.106;2023-09-19T16:11:29;2.70;;;0.73;;
73150;SDS011;61354;50.758;6.106;2023-09-19T16:13:57;1.02;;;0.55;;
73150;SDS011;61354;50.758;6.106;2023-09-19T16:16:23;5.75;;;0.80;;
73150;SDS011;61354;50.758;6.106;2023-09-19T16:21:23;0.82;;;0.57;;
73150;SDS011;61354;50.758;6.106;2023-09-19T16:23:51;2.05;;;0.80;;
73150;SDS011;61354;50.758;6.106;2023-09-19T16:26:19;2.47;;;0.90;;
73150;SDS011;61354;50.758;6.106;2023-09-19T16:28:46;2.38;;;0.85;;
73150;SDS011;61354;50.758;6.106;2023-09-19T16:31:13;2.85;;;0.80;;
73150;SDS011;61354;50.758;6.106;2023-09-19T16:33:39;2.60;;;1.00;;
73150;SDS011;61354;50.758;6.106;2023-09-19T16:36:09;2.15;;;0.93;;
73150;SDS011;61354;50.758;6.106;2023-09-19T16:38:43;3.58;;;1.17;;
73150;SDS011;61354;50.758;6.106;2023-09-19T16:41:09;2.85;;;0.70;;
73150;SDS011;61354;50.758;6.106;2023-09-19T16:43:39;2.28;;;0.80;;
73150;SDS011;61354;50.758;6.106;2023-09-19T16:46:05;3.33;;;1.10;;
73150;SDS011;61354;50.758;6.106;2023-09-19T16:48:36;2.47;;;0.70;;
73150;SDS011;61354;50.758;6.106;2023-09-19T16:51:06;3.85;;;1.00;;
73150;SDS011;61354;50.758;6.106;2023-09-19T16:53:33;1.92;;;0.63;;
73150;SDS011;61354;50.758;6.106;2023-09-19T16:58:39;3.33;;;0.85;;
73150;SDS011;61354;50.758;6.106;2023-09-19T17:01:07;3.08;;;1.10;;
73150;SDS011;61354;50.758;6.106;2023-09-19T17:03:38;2.53;;;0.90;;
73150;SDS011;61354;50.758;6.106;2023-09-19T17:06:05;3.00;;;1.00;;
73150;SDS011;61354;50.758;6.106;2023-09-19T17:08:32;1.98;;;0.70;;
73150;SDS011;61354;50.758;6.106;2023-09-19T17:11:04;1.98;;;0.82;;
73150;SDS011;61354;50.758;6.106;2023-09-19T17:13:38;1.95;;;0.70;;
73150;SDS011;61354;50.758;6.106;2023-09-19T17:18:33;3.53;;;0.93;;
73150;SDS011;61354;50.758;6.106;2023-09-19T17:21:00;3.38;;;0.82;;
73150;SDS011;61354;50.758;6.106;2023-09-19T17:23:30;1.75;;;0.80;;
73150;SDS011;61354;50.758;6.106;2023-09-19T17:25:58;3.50;;;0.90;;
73150;SDS011;61354;50.758;6.106;2023-09-19T17:28:25;4.05;;;1.08;;